Time;durP1;ratioP1;P1;durP2;ratioP2;P2;SDS_P1;SDS_P2;PMS_P1;PMS_P2;Temp;Humidity;BMP_temperature;BMP_pressure;BME280_temperature;BME280_humidity;BME280_pressure;Samples;Min_cycle;Max_cycle;Signal;HPM_P1;HPM_P2
2023/01/04 00:01:40;;;;;;;63.88;15.52;;;;;;;;;;4925911;28;20052;-66
2023/01/04 00:04:05;;;;;;;102.90;14.60;;;;;;;;;;4925942;28;20463;-65
2023/01/04 00:06:31;;;;;;;172.48;17.30;;;;;;;;;;4925742;28;20052;-67
2023/01/04 00:08:56;;;;;;;59.65;15.93;;;;;;;;;;4926808;29;20063;-66
2023/01/04 00:11:23;;;;;;;36.33;14.63;;;;;;;;;;4925250;28;20043;-66
2023/01/04 00:13:51;;;;;;;31.88;15.95;;;;;;;;;;4925836;28;20055;-64
2023/01/04 00:16:19;;;;;;;59.20;15.25;;;;;;;;;;4925878;29;20457;-66
2023/01/04 00:18:45;;;;;;;42.08;14.10;;;;;;;;;;4940018;28;20142;-66
2023/01/04 00:21:20;;;;;;;39.95;14.85;;;;;;;;;;4925166;29;20083;-64
2023/01/04 00:23:48;;;;;;;75.85;16.17;;;;;;;;;;4926050;28;20071;-66
2023/01/04 00:26:19;;;;;;;41.13;16.17;;;;;;;;;;4924917;29;20039;-64
2023/01/04 00:29:03;;;;;;;25.58;14.38;;;;;;;;;;4926005;29;20043;-66
2023/01/04 00:31:29;;;;;;;84.72;16.83;;;;;;;;;;4925650;28;20044;-63
2023/01/04 00:33:57;;;;;;;36.17;15.52;;;;;;;;;;4923559;29;20058;-66
2023/01/04 00:36:23;;;;;;;67.35;18.35;;;;;;;;;;4924183;28;20066;-66
2023/01/04 00:39:05;;;;;;;37.60;18.17;;;;;;;;;;4925811;28;20553;-65
2023/01/04 00:41:48;;;;;;;53.17;16.40;;;;;;;;;;4925363;29;20054;-65
2023/01/04 00:44:15;;;;;;;30.10;14.43;;;;;;;;;;4924235;28;20920;-64
2023/01/04 00:46:41;;;;;;;27.63;14.25;;;;;;;;;;4925159;29;20043;-66
2023/01/04 00:49:09;;;;;;;56.58;15.75;;;;;;;;;;4925843;28;20074;-65
2023/01/04 00:51:36;;;;;;;29.27;14.30;;;;;;;;;;4925441;28;20564;-65
2023/01/04 00:54:03;;;;;;;28.00;13.55;;;;;;;;;;4924535;28;20409;-66
2023/01/04 00:56:29;;;;;;;42.25;13.85;;;;;;;;;;4923925;29;21076;-66
2023/01/04 00:58:56;;;;;;;22.77;13.05;;;;;;;;;;4925771;29;20051;-66
2023/01/04 01:01:22;;;;;;;23.55;12.15;;;;;;;;;;4925387;28;20091;-64
2023/01/04 01:03:51;;;;;;;23.50;12.25;;;;;;;;;;4924722;28;20107;-66
2023/01/04 01:06:17;;;;;;;21.95;11.50;;;;;;;;;;4938631;28;20142;-66
2023/01/04 01:08:43;;;;;;;42.80;11.13;;;;;;;;;;4925188;29;20071;-67
2023/01/04 01:11:09;;;;;;;48.22;16.00;;;;;;;;;;4925222;29;20776;-67
2023/01/04 01:13:36;;;;;;;25.35;14.43;;;;;;;;;;4924693;28;20044;-67
2023/01/04 01:16:07;;;;;;;43.83;17.45;;;;;;;;;;4923563;28;20043;-66
2023/01/04 01:18:33;;;;;;;47.97;19.08;;;;;;;;;;4939272;28;20047;-67
2023/01/04 01:20:59;;;;;;;35.88;15.63;;;;;;;;;;4924969;29;20052;-66
2023/01/04 01:23:25;;;;;;;35.65;15.98;;;;;;;;;;4923664;29;20052;-65
2023/01/04 01:25:50;;;;;;;28.60;15.82;;;;;;;;;;4921644;28;20077;-64
2023/01/04 01:28:15;;;;;;;24.48;14.52;;;;;;;;;;4922854;29;20079;-67
2023/01/04 01:30:42;;;;;;;29.23;16.63;;;;;;;;;;4922721;28;20051;-65
2023/01/04 01:33:08;;;;;;;50.63;21.38;;;;;;;;;;4922508;29;20473;-66
2023/01/04 01:35:34;;;;;;;55.40;24.23;;;;;;;;;;4916761;29;20962;-66
2023/01/04 01:38:00;;;;;;;48.25;21.73;;;;;;;;;;4924366;28;20059;-66
2023/01/04 01:40:25;;;;;;;29.88;16.02;;;;;;;;;;4924825;29;20044;-67
2023/01/04 01:42:51;;;;;;;23.50;13.93;;;;;;;;;;4939237;28;20565;-67
2023/01/04 01:45:31;;;;;;;24.52;14.15;;;;;;;;;;4923062;28;20134;-66
2023/01/04 01:48:09;;;;;;;17.85;12.40;;;;;;;;;;4923923;28;20109;-67
2023/01/04 01:50:43;;;;;;;27.73;16.05;;;;;;;;;;4924482;29;20055;-67
2023/01/04 01:53:10;;;;;;;25.23;15.00;;;;;;;;;;4924640;29;20059;-67
2023/01/04 01:55:35;;;;;;;43.50;17.50;;;;;;;;;;4923504;28;20698;-67
2023/01/04 01:58:03;;;;;;;33.80;17.00;;;;;;;;;;4923128;29;20065;-67
2023/01/04 02:00:29;;;;;;;30.42;15.52;;;;;;;;;;4923984;28;20039;-67
2023/01/04 02:03:11;;;;;;;90.55;15.98;;;;;;;;;;4924035;29;20134;-67
2023/01/04 02:05:37;;;;;;;26.52;14.73;;;;;;;;;;4923417;29;20123;-66
2023/01/04 02:08:04;;;;;;;42.17;15.23;;;;;;;;;;4922410;28;20066;-68
2023/01/04 02:10:30;;;;;;;29.58;13.85;;;;;;;;;;4923697;29;20173;-67
2023/01/04 02:12:57;;;;;;;52.17;13.93;;;;;;;;;;4923746;28;20115;-68
2023/01/04 02:15:27;;;;;;;32.53;14.02;;;;;;;;;;4923120;29;20051;-67
2023/01/04 02:18:09;;;;;;;34.15;13.60;;;;;;;;;;4937877;28;20075;-67
2023/01/04 02:20:51;;;;;;;27.52;13.57;;;;;;;;;;4923589;29;20138;-67
2023/01/04 02:23:23;;;;;;;27.23;13.63;;;;;;;;;;4923996;29;20066;-67
2023/01/04 02:26:27;;;;;;;31.35;12.57;;;;;;;;;;4922620;28;20397;-68
2023/01/04 02:29:11;;;;;;;29.58;12.50;;;;;;;;;;4923414;29;20535;-67
2023/01/04 02:31:57;;;;;;;21.40;11.52;;;;;;;;;;4923197;28;20425;-68
2023/01/04 02:34:42;;;;;;;23.55;11.70;;;;;;;;;;4936583;28;20048;-67
2023/01/04 02:37:19;;;;;;;27.15;10.55;;;;;;;;;;4923800;28;20075;-67
2023/01/04 02:40:03;;;;;;;24.38;11.13;;;;;;;;;;4923553;29;20047;-67
2023/01/04 02:44:51;;;;;;;26.58;10.30;;;;;;;;;;4934472;28;20525;-66
2023/01/04 02:45:17;;;;;;;34.50;10.75;;;;;;;;;;4922720;29;20532;-68
2023/01/04 02:50:34;;;;;;;20.75;11.15;;;;;;;;;;4930865;28;20054;-67
2023/01/04 02:53:13;;;;;;;31.65;10.43;;;;;;;;;;4921171;28;20142;-67
2023/01/04 02:55:46;;;;;;;22.90;10.77;;;;;;;;;;4922597;29;20051;-67
2023/01/04 02:58:31;;;;;;;16.15;10.02;;;;;;;;;;4922832;28;20509;-67
2023/01/04 03:07:17;;;;;;;32.90;9.38;;;;;;;;;;4930008;29;21087;-67
2023/01/04 03:09:48;;;;;;;21.58;9.15;;;;;;;;;;4929567;28;20127;-67
2023/01/04 03:12:31;;;;;;;34.97;9.57;;;;;;;;;;4948567;28;20067;-67
2023/01/04 03:15:23;;;;;;;38.17;9.52;;;;;;;;;;4947225;28;20461;-67
2023/01/04 03:17:50;;;;;;;25.35;10.32;;;;;;;;;;4948311;28;20035;-67
2023/01/04 03:20:18;;;;;;;33.53;8.88;;;;;;;;;;4948452;28;20065;-67
2023/01/04 03:37:08;;;;;;;28.52;8.25;;;;;;;;;;4947244;28;20047;-66
2023/01/04 03:49:22;;;;;;;9.73;7.68;;;;;;;;;;4948398;28;20051;-68
2023/01/04 03:51:52;;;;;;;9.02;7.50;;;;;;;;;;4947577;28;20166;-70
2023/01/04 03:54:24;;;;;;;8.25;6.78;;;;;;;;;;4948422;28;20087;-68
2023/01/04 03:56:51;;;;;;;7.80;6.78;;;;;;;;;;4947529;28;20862;-68
2023/01/04 03:59:17;;;;;;;38.58;7.85;;;;;;;;;;4946081;28;20094;-69
2023/01/04 04:01:43;;;;;;;11.05;6.53;;;;;;;;;;4948346;28;20173;-68
2023/01/04 04:09:37;;;;;;;6.63;5.93;;;;;;;;;;4947579;28;20063;-68
2023/01/04 04:12:03;;;;;;;8.43;5.93;;;;;;;;;;4943535;28;20160;-68
2023/01/04 04:14:28;;;;;;;6.63;4.90;;;;;;;;;;4944835;28;20077;-66
2023/01/04 04:16:53;;;;;;;6.78;4.72;;;;;;;;;;4944729;28;20046;-66
2023/01/04 04:19:19;;;;;;;5.07;4.57;;;;;;;;;;4944154;28;20118;-65
2023/01/04 04:21:44;;;;;;;7.38;4.40;;;;;;;;;;4944849;28;20055;-64
2023/01/04 04:24:17;;;;;;;4.57;4.10;;;;;;;;;;4944560;28;20078;-64
2023/01/04 04:26:42;;;;;;;3.95;3.38;;;;;;;;;;4944193;28;20420;-65
2023/01/04 04:29:08;;;;;;;3.95;3.00;;;;;;;;;;4959918;28;20050;-66
2023/01/04 04:31:33;;;;;;;3.78;2.78;;;;;;;;;;4943549;28;20126;-66
2023/01/04 04:33:59;;;;;;;3.33;3.00;;;;;;;;;;4943780;28;20054;-65
2023/01/04 04:36:24;;;;;;;3.03;2.72;;;;;;;;;;4943956;28;20054;-66
2023/01/04 04:38:49;;;;;;;2.72;2.53;;;;;;;;;;4944779;28;20458;-65
2023/01/04 04:43:59;;;;;;;2.83;2.58;;;;;;;;;;4943395;28;20055;-66
2023/01/04 04:46:24;;;;;;;3.85;3.33;;;;;;;;;;4943787;28;20078;-66
2023/01/04 04:48:50;;;;;;;5.53;3.25;;;;;;;;;;4944302;28;20087;-66
2023/01/04 04:51:16;;;;;;;4.07;3.53;;;;;;;;;;4943059;28;20055;-66
2023/01/04 04:53:41;;;;;;;3.85;3.28;;;;;;;;;;4942924;28;20054;-67
2023/01/04 04:56:07;;;;;;;5.13;3.58;;;;;;;;;;4942863;28;20050;-66
2023/01/04 04:58:33;;;;;;;3.50;3.17;;;;;;;;;;4943694;28;20039;-65
2023/01/04 05:00:58;;;;;;;3.58;3.28;;;;;;;;;;4942576;28;20047;-65
2023/01/04 05:03:24;;;;;;;5.68;3.75;;;;;;;;;;4942218;28;20051;-65
2023/01/04 05:05:49;;;;;;;4.15;3.40;;;;;;;;;;4941890;28;20560;-66
2023/01/04 05:08:14;;;;;;;4.15;3.60;;;;;;;;;;4943440;28;20051;-66
2023/01/04 05:10:40;;;;;;;3.28;2.78;;;;;;;;;;4943812;28;20043;-67
2023/01/04 05:13:09;;;;;;;3.83;3.15;;;;;;;;;;4943872;28;20596;-66
2023/01/04 05:15:40;;;;;;;3.65;3.05;;;;;;;;;;4941545;28;20102;-66
2023/01/04 05:18:06;;;;;;;3.58;3.10;;;;;;;;;;4942684;28;20086;-66
2023/01/04 05:20:33;;;;;;;3.42;2.90;;;;;;;;;;4943529;28;20051;-66
2023/01/04 05:22:58;;;;;;;3.63;3.30;;;;;;;;;;4943235;28;20062;-67
2023/01/04 05:25:23;;;;;;;4.10;3.65;;;;;;;;;;4941916;28;20047;-67
2023/01/04 05:27:49;;;;;;;4.70;3.38;;;;;;;;;;4942361;28;20055;-67
2023/01/04 05:33:00;;;;;;;8.60;4.15;;;;;;;;;;4943242;28;20054;-67
2023/01/04 05:35:25;;;;;;;10.15;5.20;;;;;;;;;;4942616;28;20385;-66
2023/01/04 05:37:50;;;;;;;9.10;5.57;;;;;;;;;;4941608;28;20055;-67
2023/01/04 05:40:16;;;;;;;22.80;5.50;;;;;;;;;;4957862;28;20047;-66
2023/01/04 05:42:42;;;;;;;24.95;5.30;;;;;;;;;;4943221;28;20039;-66
2023/01/04 05:45:08;;;;;;;60.97;6.07;;;;;;;;;;4942254;28;20640;-66
2023/01/04 05:47:34;;;;;;;48.33;6.00;;;;;;;;;;4956883;28;20765;-66
2023/01/04 05:50:00;;;;;;;20.00;4.93;;;;;;;;;;4941786;28;20543;-67
2023/01/04 05:52:25;;;;;;;37.85;4.78;;;;;;;;;;4943013;28;20082;-66
2023/01/04 05:54:51;;;;;;;72.28;5.80;;;;;;;;;;4942348;28;20141;-66
2023/01/04 05:57:17;;;;;;;194.48;7.85;;;;;;;;;;4941794;28;20051;-66
2023/01/04 05:59:42;;;;;;;134.13;7.90;;;;;;;;;;4941679;28;20118;-66
2023/01/04 06:02:17;;;;;;;35.35;6.68;;;;;;;;;;4941523;28;20327;-66
2023/01/04 06:04:43;;;;;;;33.28;7.50;;;;;;;;;;4942095;28;20433;-66
2023/01/04 06:07:08;;;;;;;9.32;7.57;;;;;;;;;;4941755;28;20043;-66
2023/01/04 06:09:34;;;;;;;10.20;6.32;;;;;;;;;;4941431;28;20106;-66
2023/01/04 06:11:59;;;;;;;9.57;5.55;;;;;;;;;;4941709;28;20102;-66
2023/01/04 06:14:24;;;;;;;6.00;5.35;;;;;;;;;;4942266;28;20110;-67
2023/01/04 06:16:50;;;;;;;6.07;4.85;;;;;;;;;;4941460;28;20089;-66
2023/01/04 06:19:15;;;;;;;5.30;4.47;;;;;;;;;;4942122;28;20051;-66
2023/01/04 06:21:41;;;;;;;7.13;4.60;;;;;;;;;;4940826;28;20069;-66
2023/01/04 06:24:06;;;;;;;6.55;4.25;;;;;;;;;;4941744;28;20051;-66
2023/01/04 06:26:31;;;;;;;5.45;4.78;;;;;;;;;;4941213;28;20042;-67
2023/01/04 06:28:57;;;;;;;3.88;3.45;;;;;;;;;;4942376;28;20058;-67
2023/01/04 06:31:22;;;;;;;5.47;4.20;;;;;;;;;;4941155;28;20047;-67
2023/01/04 06:33:48;;;;;;;4.95;4.00;;;;;;;;;;4940893;28;20051;-66
2023/01/04 06:36:13;;;;;;;4.18;3.53;;;;;;;;;;4940285;28;20489;-67
2023/01/04 06:38:39;;;;;;;4.55;3.40;;;;;;;;;;4942115;28;20053;-66
2023/01/04 06:41:04;;;;;;;4.50;3.35;;;;;;;;;;4955582;28;20055;-67
2023/01/04 06:43:30;;;;;;;3.88;3.03;;;;;;;;;;4955390;28;20050;-66
2023/01/04 06:45:55;;;;;;;3.63;3.25;;;;;;;;;;4939739;28;20134;-66
2023/01/04 06:48:20;;;;;;;5.60;3.78;;;;;;;;;;4941398;28;20051;-67
2023/01/04 06:50:46;;;;;;;3.97;3.15;;;;;;;;;;4942024;28;20047;-68
2023/01/04 06:53:11;;;;;;;7.25;4.00;;;;;;;;;;4940941;28;20039;-68
2023/01/04 06:55:37;;;;;;;3.70;3.00;;;;;;;;;;4940977;28;20130;-68
2023/01/04 06:58:02;;;;;;;5.82;3.22;;;;;;;;;;4940879;28;20086;-69
2023/01/04 07:00:28;;;;;;;3.80;2.95;;;;;;;;;;4940375;28;20086;-69
2023/01/04 07:02:53;;;;;;;3.60;3.00;;;;;;;;;;4941502;28;20372;-68
2023/01/04 07:05:19;;;;;;;4.80;2.80;;;;;;;;;;4938596;28;20201;-68
2023/01/04 07:07:44;;;;;;;2.83;2.25;;;;;;;;;;4940787;28;20101;-71
2023/01/04 07:10:10;;;;;;;2.15;2.03;;;;;;;;;;4940957;28;20059;-70
2023/01/04 07:12:36;;;;;;;2.97;2.58;;;;;;;;;;4941838;28;20122;-69
2023/01/04 07:15:02;;;;;;;3.38;3.00;;;;;;;;;;4941230;28;20051;-69
2023/01/04 07:17:27;;;;;;;3.42;3.00;;;;;;;;;;4940204;28;20058;-69
2023/01/04 07:19:53;;;;;;;5.20;2.92;;;;;;;;;;4940095;28;20051;-69
2023/01/04 07:22:18;;;;;;;2.75;2.55;;;;;;;;;;4939600;28;20055;-68
2023/01/04 07:24:44;;;;;;;2.63;2.42;;;;;;;;;;4939474;28;20055;-68
2023/01/04 07:27:10;;;;;;;3.33;2.40;;;;;;;;;;4936761;28;20058;-69
2023/01/04 07:29:36;;;;;;;3.10;2.80;;;;;;;;;;4939639;28;20081;-69
2023/01/04 07:32:01;;;;;;;3.08;2.78;;;;;;;;;;4938267;28;20059;-68
2023/01/04 07:34:27;;;;;;;3.00;2.70;;;;;;;;;;4940109;28;20039;-69
2023/01/04 07:36:53;;;;;;;3.22;2.88;;;;;;;;;;4934171;28;20377;-70
2023/01/04 07:39:19;;;;;;;3.13;2.80;;;;;;;;;;4937129;28;20043;-69
2023/01/04 07:41:46;;;;;;;2.90;2.60;;;;;;;;;;4950775;28;20134;-68
2023/01/04 07:44:13;;;;;;;2.58;2.38;;;;;;;;;;4953957;28;20200;-68
2023/01/04 07:46:41;;;;;;;2.70;2.40;;;;;;;;;;4940979;28;20638;-69
2023/01/04 07:49:10;;;;;;;5.22;3.70;;;;;;;;;;4941421;28;20051;-69
2023/01/04 07:51:35;;;;;;;5.53;4.50;;;;;;;;;;4942282;28;20057;-70
2023/01/04 07:54:01;;;;;;;6.65;4.88;;;;;;;;;;4942527;28;20047;-69
2023/01/04 07:56:26;;;;;;;9.85;4.07;;;;;;;;;;4943231;28;20381;-70
2023/01/04 07:58:55;;;;;;;3.55;3.25;;;;;;;;;;4943680;28;20059;-69
2023/01/04 08:01:22;;;;;;;3.30;3.10;;;;;;;;;;4941594;28;20916;-70
2023/01/04 08:03:48;;;;;;;5.85;3.85;;;;;;;;;;4943058;28;20047;-70
2023/01/04 08:06:15;;;;;;;3.33;3.03;;;;;;;;;;4942492;28;20090;-70
2023/01/04 08:08:41;;;;;;;5.07;3.10;;;;;;;;;;4942814;28;20412;-70
2023/01/04 08:11:09;;;;;;;3.08;2.78;;;;;;;;;;4942401;28;20055;-70
2023/01/04 08:13:35;;;;;;;4.13;3.35;;;;;;;;;;4943141;28;20504;-70
2023/01/04 08:16:01;;;;;;;2.50;2.30;;;;;;;;;;4938060;28;20047;-71
2023/01/04 08:18:27;;;;;;;2.70;2.50;;;;;;;;;;4942666;28;20433;-72
2023/01/04 08:21:06;;;;;;;3.40;3.03;;;;;;;;;;4942768;28;20055;-71
2023/01/04 08:23:33;;;;;;;3.13;2.83;;;;;;;;;;4941967;28;20483;-71
2023/01/04 08:26:04;;;;;;;3.20;2.90;;;;;;;;;;4941455;28;20066;-72
2023/01/04 08:28:30;;;;;;;3.30;3.10;;;;;;;;;;4942867;28;20055;-72
2023/01/04 08:30:56;;;;;;;2.50;2.30;;;;;;;;;;4942079;28;20163;-71
2023/01/04 08:33:21;;;;;;;4.15;2.70;;;;;;;;;;4941598;28;20500;-71
2023/01/04 08:35:47;;;;;;;5.05;3.60;;;;;;;;;;4941321;28;20058;-70
2023/01/04 08:38:12;;;;;;;2.22;2.13;;;;;;;;;;4937473;28;20075;-70
2023/01/04 08:40:37;;;;;;;2.85;2.60;;;;;;;;;;4941353;28;20071;-71
2023/01/04 08:43:03;;;;;;;4.13;2.70;;;;;;;;;;4941804;28;20043;-70
2023/01/04 08:45:29;;;;;;;3.55;2.75;;;;;;;;;;4939342;28;20121;-71
2023/01/04 08:47:54;;;;;;;3.45;2.67;;;;;;;;;;4940485;28;20161;-71
2023/01/04 08:50:20;;;;;;;2.60;2.40;;;;;;;;;;4942200;28;20046;-71
2023/01/04 08:52:46;;;;;;;2.30;2.10;;;;;;;;;;4941207;28;20148;-71
2023/01/04 08:55:11;;;;;;;2.30;2.10;;;;;;;;;;4939639;28;20067;-70
2023/01/04 08:57:37;;;;;;;3.15;2.70;;;;;;;;;;4939494;28;20520;-70
2023/01/04 09:00:03;;;;;;;4.15;2.67;;;;;;;;;;4941002;28;20051;-70
2023/01/04 09:02:29;;;;;;;2.80;2.60;;;;;;;;;;4938416;28;20043;-71
2023/01/04 09:04:58;;;;;;;2.85;2.58;;;;;;;;;;4940738;28;20837;-70
2023/01/04 09:07:27;;;;;;;5.25;3.33;;;;;;;;;;4940482;28;20039;-70
2023/01/04 09:09:53;;;;;;;3.22;2.75;;;;;;;;;;4941661;28;20047;-71
2023/01/04 09:12:18;;;;;;;3.10;2.80;;;;;;;;;;4941241;28;20094;-70
2023/01/04 09:14:44;;;;;;;2.65;2.33;;;;;;;;;;4942688;28;20055;-71
2023/01/04 09:17:09;;;;;;;2.47;1.92;;;;;;;;;;4941484;28;20053;-70
2023/01/04 09:19:34;;;;;;;4.53;2.63;;;;;;;;;;4942719;28;20130;-71
2023/01/04 09:22:00;;;;;;;2.58;2.38;;;;;;;;;;4942141;28;20452;-71
2023/01/04 09:24:25;;;;;;;3.53;3.08;;;;;;;;;;4942251;28;20500;-71
2023/01/04 09:26:51;;;;;;;3.20;2.90;;;;;;;;;;4940965;28;20043;-71
2023/01/04 09:29:16;;;;;;;2.67;2.47;;;;;;;;;;4941992;28;20043;-71
2023/01/04 09:31:42;;;;;;;2.55;2.10;;;;;;;;;;4925597;28;20049;-71
2023/01/04 09:34:09;;;;;;;2.08;1.88;;;;;;;;;;4937499;28;20052;-71
2023/01/04 09:36:35;;;;;;;2.45;2.22;;;;;;;;;;4923186;28;20079;-71
2023/01/04 09:39:00;;;;;;;2.60;2.40;;;;;;;;;;4922717;29;20071;-71
2023/01/04 09:41:26;;;;;;;5.13;3.50;;;;;;;;;;4923871;28;20058;-71
2023/01/04 09:43:54;;;;;;;4.90;3.25;;;;;;;;;;4922811;29;20047;-71
2023/01/04 09:46:33;;;;;;;3.25;2.60;;;;;;;;;;4922357;28;20143;-71
2023/01/04 09:49:27;;;;;;;3.67;2.90;;;;;;;;;;4922515;28;20138;-71
2023/01/04 09:52:02;;;;;;;2.15;2.03;;;;;;;;;;4922502;28;20071;-71
2023/01/04 09:54:38;;;;;;;3.10;1.60;;;;;;;;;;4923760;29;20055;-71
2023/01/04 09:57:07;;;;;;;1.40;1.30;;;;;;;;;;4923136;29;20701;-71
2023/01/04 09:59:33;;;;;;;1.70;1.42;;;;;;;;;;4924819;28;20066;-72
2023/01/04 10:02:10;;;;;;;1.13;1.02;;;;;;;;;;4935222;29;20912;-71
2023/01/04 10:04:40;;;;;;;1.05;1.00;;;;;;;;;;4924284;28;20118;-71
2023/01/04 10:07:15;;;;;;;2.25;1.10;;;;;;;;;;4930032;29;20114;-71
2023/01/04 10:09:40;;;;;;;0.80;0.80;;;;;;;;;;4937815;28;20062;-70
2023/01/04 10:12:21;;;;;;;1.10;0.93;;;;;;;;;;4922697;28;20048;-70
2023/01/04 10:14:59;;;;;;;1.75;0.90;;;;;;;;;;4923907;29;20545;-71
2023/01/04 10:17:29;;;;;;;2.38;1.15;;;;;;;;;;4923306;28;20059;-70
2023/01/04 10:20:08;;;;;;;0.80;0.80;;;;;;;;;;4938545;29;20079;-70
2023/01/04 10:22:57;;;;;;;1.52;1.15;;;;;;;;;;4920778;29;20056;-70
2023/01/04 10:25:32;;;;;;;0.77;0.77;;;;;;;;;;4923394;28;20142;-70
2023/01/04 10:28:10;;;;;;;1.38;1.02;;;;;;;;;;4937212;28;20086;-71
2023/01/04 10:31:07;;;;;;;1.00;1.00;;;;;;;;;;4923153;29;20110;-69
2023/01/04 10:33:46;;;;;;;2.67;0.93;;;;;;;;;;4922503;28;20058;-71
2023/01/04 10:36:27;;;;;;;1.13;0.98;;;;;;;;;;4936975;28;20055;-71
2023/01/04 10:39:00;;;;;;;1.08;1.08;;;;;;;;;;4923792;28;20044;-71
2023/01/04 10:41:30;;;;;;;3.17;1.10;;;;;;;;;;4923587;29;20180;-71
2023/01/04 10:44:25;;;;;;;1.08;1.08;;;;;;;;;;4936718;28;20048;-72
2023/01/04 10:47:18;;;;;;;1.50;1.40;;;;;;;;;;4889414;29;20428;-71
2023/01/04 10:49:48;;;;;;;2.08;1.52;;;;;;;;;;4923436;29;20123;-72
2023/01/04 10:52:20;;;;;;;1.42;1.30;;;;;;;;;;4922146;28;20058;-71
2023/01/04 10:54:53;;;;;;;1.35;1.17;;;;;;;;;;4936601;29;20660;-72
2023/01/04 10:57:30;;;;;;;1.40;1.30;;;;;;;;;;4936602;28;20052;-72
2023/01/04 11:00:04;;;;;;;1.77;1.15;;;;;;;;;;4936635;28;20398;-74
2023/01/04 11:02:39;;;;;;;2.50;1.10;;;;;;;;;;4922241;28;20394;-71
2023/01/04 11:05:19;;;;;;;2.80;1.50;;;;;;;;;;4922872;28;20048;-71
2023/01/04 11:07:52;;;;;;;1.55;1.30;;;;;;;;;;4921923;28;20052;-71
2023/01/04 11:10:26;;;;;;;1.17;0.90;;;;;;;;;;4934981;28;20055;-72
2023/01/04 11:12:52;;;;;;;1.63;1.40;;;;;;;;;;4921341;28;20047;-72
2023/01/04 11:15:17;;;;;;;1.40;1.30;;;;;;;;;;4921405;28;20040;-72
2023/01/04 11:17:44;;;;;;;1.40;1.30;;;;;;;;;;4920877;28;20135;-72
2023/01/04 11:20:11;;;;;;;1.27;1.17;;;;;;;;;;4920642;28;20091;-73
2023/01/04 11:22:44;;;;;;;1.95;1.33;;;;;;;;;;4926781;29;20079;-72
2023/01/04 11:25:18;;;;;;;1.30;1.20;;;;;;;;;;4925815;28;20497;-71
2023/01/04 11:27:48;;;;;;;2.33;1.00;;;;;;;;;;4924829;28;20079;-71
2023/01/04 11:30:21;;;;;;;5.07;0.60;;;;;;;;;;4924683;28;20055;-70
2023/01/04 11:32:55;;;;;;;0.65;0.65;;;;;;;;;;4923504;28;20528;-71
2023/01/04 11:35:41;;;;;;;1.25;0.70;;;;;;;;;;4925683;28;20241;-70
2023/01/04 11:38:21;;;;;;;1.45;0.80;;;;;;;;;;4925589;28;20071;-71
2023/01/04 11:40:59;;;;;;;0.40;0.38;;;;;;;;;;4919014;29;20055;-71
2023/01/04 11:43:29;;;;;;;1.75;0.70;;;;;;;;;;4926578;29;20148;-71
2023/01/04 11:46:19;;;;;;;0.90;0.57;;;;;;;;;;4939994;28;20556;-71
2023/01/04 11:48:46;;;;;;;1.13;0.60;;;;;;;;;;4926960;29;20481;-71
2023/01/04 11:51:17;;;;;;;0.68;0.68;;;;;;;;;;4940254;28;20050;-71
2023/01/04 11:53:42;;;;;;;0.75;0.60;;;;;;;;;;4925858;29;20532;-71
2023/01/04 11:56:20;;;;;;;0.70;0.55;;;;;;;;;;4924180;28;20122;-71
2023/01/04 11:59:13;;;;;;;1.17;0.50;;;;;;;;;;4926912;29;20114;-72
2023/01/04 12:01:47;;;;;;;2.50;0.60;;;;;;;;;;4925270;29;20071;-72
2023/01/04 12:04:17;;;;;;;3.38;0.50;;;;;;;;;;4925086;28;20063;-72
2023/01/04 12:07:00;;;;;;;0.73;0.60;;;;;;;;;;4925408;29;20047;-71
2023/01/04 12:09:29;;;;;;;0.70;0.70;;;;;;;;;;4926164;28;20058;-71
2023/01/04 12:11:57;;;;;;;0.50;0.50;;;;;;;;;;4924377;28;20077;-71
2023/01/04 12:14:33;;;;;;;0.43;0.43;;;;;;;;;;4926017;28;20055;-71
2023/01/04 12:17:19;;;;;;;0.50;0.50;;;;;;;;;;4924843;28;20059;-71
2023/01/04 12:19:46;;;;;;;0.40;0.40;;;;;;;;;;4925849;29;20099;-72
2023/01/04 12:22:32;;;;;;;1.55;0.40;;;;;;;;;;4923548;28;20043;-71
2023/01/04 12:24:58;;;;;;;0.98;0.38;;;;;;;;;;4924554;29;20179;-71
2023/01/04 12:27:24;;;;;;;1.00;0.50;;;;;;;;;;4925236;29;20634;-71
2023/01/04 12:29:56;;;;;;;0.60;0.60;;;;;;;;;;4925353;28;20055;-70
2023/01/04 12:32:22;;;;;;;1.65;0.40;;;;;;;;;;4943232;28;20051;-69
2023/01/04 12:34:47;;;;;;;0.43;0.43;;;;;;;;;;4943159;28;20051;-70
2023/01/04 12:37:41;;;;;;;2.22;0.60;;;;;;;;;;4943690;28;20143;-69
2023/01/04 12:40:43;;;;;;;0.40;0.40;;;;;;;;;;4943923;28;20481;-69
2023/01/04 12:43:15;;;;;;;0.45;0.45;;;;;;;;;;4944802;28;20051;-69
2023/01/04 12:45:45;;;;;;;2.47;0.50;;;;;;;;;;4942064;28;20043;-70
2023/01/04 12:51:24;;;;;;;0.50;0.50;;;;;;;;;;4942254;28;20039;-69
2023/01/04 12:53:59;;;;;;;0.20;0.20;;;;;;;;;;4941449;28;20488;-70
2023/01/04 12:57:02;;;;;;;0.90;0.73;;;;;;;;;;4949729;28;20051;-71
2023/01/04 12:59:33;;;;;;;1.13;0.40;;;;;;;;;;4936215;28;20043;-71
2023/01/04 13:02:35;;;;;;;0.93;0.40;;;;;;;;;;4941475;28;20055;-70
2023/01/04 13:05:22;;;;;;;0.53;0.50;;;;;;;;;;4935365;28;20070;-70
2023/01/04 13:07:54;;;;;;;2.65;0.57;;;;;;;;;;4941752;28;20075;-70
2023/01/04 13:10:37;;;;;;;0.32;0.32;;;;;;;;;;4942890;28;20063;-70
2023/01/04 13:13:35;;;;;;;0.52;0.45;;;;;;;;;;4941380;28;20047;-70
2023/01/04 13:16:25;;;;;;;0.50;0.50;;;;;;;;;;4925056;28;20492;-70
2023/01/04 13:18:54;;;;;;;0.20;0.20;;;;;;;;;;4943175;28;20145;-70
2023/01/04 13:21:38;;;;;;;0.50;0.30;;;;;;;;;;4944188;28;20046;-70
2023/01/04 13:24:32;;;;;;;0.40;0.40;;;;;;;;;;4943454;28;20047;-71
2023/01/04 13:27:06;;;;;;;0.32;0.30;;;;;;;;;;4942791;28;20361;-70
2023/01/04 13:29:33;;;;;;;0.47;0.47;;;;;;;;;;4942584;28;20043;-70
2023/01/04 13:32:04;;;;;;;0.40;0.40;;;;;;;;;;4941372;28;20054;-70
2023/01/04 13:34:35;;;;;;;0.73;0.60;;;;;;;;;;4937485;28;20050;-70
2023/01/04 13:37:09;;;;;;;0.53;0.50;;;;;;;;;;4938397;28;20050;-70
2023/01/04 13:39:42;;;;;;;0.40;0.40;;;;;;;;;;4941251;28;20078;-70
2023/01/04 13:42:14;;;;;;;;;;;;;;;;;;4942951;28;20109;-70
2023/01/04 13:45:17;;;;;;;0.63;0.40;;;;;;;;;;4942340;28;19929;-70
2023/01/04 13:47:44;;;;;;;0.77;0.55;;;;;;;;;;4941291;28;20070;-70
2023/01/04 13:50:35;;;;;;;0.85;0.22;;;;;;;;;;4940525;28;20043;-70
2023/01/04 13:53:01;;;;;;;0.73;0.60;;;;;;;;;;4934636;28;20062;-70
2023/01/04 13:55:29;;;;;;;0.43;0.40;;;;;;;;;;4939393;28;20030;-70
2023/01/04 13:57:59;;;;;;;0.35;0.35;;;;;;;;;;4941727;28;20043;-71
2023/01/04 14:00:31;;;;;;;0.47;0.47;;;;;;;;;;4942623;28;20055;-70
2023/01/04 14:03:05;;;;;;;0.65;0.50;;;;;;;;;;4941930;28;20058;-71
2023/01/04 14:05:31;;;;;;;0.30;0.30;;;;;;;;;;4943069;28;20409;-70
2023/01/04 14:07:56;;;;;;;0.45;0.43;;;;;;;;;;4940655;28;20515;-71
2023/01/04 14:10:22;;;;;;;0.70;0.50;;;;;;;;;;4942240;28;20086;-70
2023/01/04 14:12:47;;;;;;;1.25;0.50;;;;;;;;;;4941678;28;20054;-70
2023/01/04 14:15:23;;;;;;;0.50;0.50;;;;;;;;;;4929699;28;20040;-71
2023/01/04 14:17:53;;;;;;;0.40;0.40;;;;;;;;;;4936506;28;20071;-70
2023/01/04 14:20:19;;;;;;;0.68;0.45;;;;;;;;;;4922331;29;20130;-70
2023/01/04 14:22:44;;;;;;;0.60;0.40;;;;;;;;;;4918744;28;20060;-70
2023/01/04 14:25:47;;;;;;;0.65;0.50;;;;;;;;;;4920850;28;20044;-70
2023/01/04 14:28:23;;;;;;;0.30;0.30;;;;;;;;;;4918802;28;20170;-71
2023/01/04 14:30:53;;;;;;;2.67;0.50;;;;;;;;;;4920498;29;20309;-71
2023/01/04 14:33:40;;;;;;;0.77;0.32;;;;;;;;;;4935400;28;20051;-70
2023/01/04 14:36:06;;;;;;;0.88;0.50;;;;;;;;;;4920327;28;20159;-71
2023/01/04 14:38:57;;;;;;;0.85;0.60;;;;;;;;;;4921931;28;20177;-71
2023/01/04 14:41:27;;;;;;;0.40;0.38;;;;;;;;;;4914949;28;20032;-71
2023/01/04 14:44:02;;;;;;;0.55;0.50;;;;;;;;;;4916586;29;20055;-71
2023/01/04 14:46:30;;;;;;;0.73;0.60;;;;;;;;;;4931496;28;20087;-71
2023/01/04 14:48:55;;;;;;;0.50;0.43;;;;;;;;;;4920551;28;20161;-71
2023/01/04 14:51:32;;;;;;;0.82;0.55;;;;;;;;;;4918512;28;20044;-71
2023/01/04 14:53:57;;;;;;;0.40;0.40;;;;;;;;;;4919259;28;20059;-73
2023/01/04 14:56:22;;;;;;;0.52;0.52;;;;;;;;;;4919148;28;20047;-71
2023/01/04 14:58:48;;;;;;;0.50;0.50;;;;;;;;;;4920515;28;20067;-72
2023/01/04 15:01:13;;;;;;;0.45;0.45;;;;;;;;;;4920657;28;20050;-71
2023/01/04 15:03:39;;;;;;;0.52;0.45;;;;;;;;;;4934184;28;20629;-71
2023/01/04 15:06:05;;;;;;;1.33;0.50;;;;;;;;;;4919536;28;20048;-71
2023/01/04 15:08:31;;;;;;;0.40;0.40;;;;;;;;;;4920709;28;20063;-71
2023/01/04 15:10:57;;;;;;;1.25;1.10;;;;;;;;;;4921786;28;20078;-71
2023/01/04 15:13:23;;;;;;;0.45;0.45;;;;;;;;;;4935966;28;20071;-71
2023/01/04 15:15:48;;;;;;;0.50;0.35;;;;;;;;;;4921288;29;20817;-71
2023/01/04 15:18:15;;;;;;;0.50;0.50;;;;;;;;;;4919042;28;20075;-71
2023/01/04 15:20:41;;;;;;;0.40;0.25;;;;;;;;;;4920463;28;20374;-71
2023/01/04 15:23:07;;;;;;;0.40;0.40;;;;;;;;;;4921117;28;20098;-72
2023/01/04 15:25:32;;;;;;;0.35;0.30;;;;;;;;;;4935013;28;20051;-71
2023/01/04 15:27:58;;;;;;;0.30;0.30;;;;;;;;;;4934982;28;20108;-71
2023/01/04 15:30:23;;;;;;;0.40;0.40;;;;;;;;;;4920357;28;20519;-72
2023/01/04 15:32:49;;;;;;;0.40;0.30;;;;;;;;;;4920914;29;20043;-72
2023/01/04 15:35:15;;;;;;;1.73;0.40;;;;;;;;;;4921244;28;20055;-72
2023/01/04 15:37:45;;;;;;;2.50;0.47;;;;;;;;;;4920481;28;20485;-71
2023/01/04 15:40:13;;;;;;;0.70;0.60;;;;;;;;;;4919188;28;20031;-72
2023/01/04 15:45:23;;;;;;;0.60;0.52;;;;;;;;;;4936362;29;20072;-72
2023/01/04 15:47:52;;;;;;;0.75;0.50;;;;;;;;;;4934476;28;20147;-71